createdAt,value
2022-07-29T00:02:16.730Z,17.80
2022-07-29T00:04:43.257Z,17.80
2022-07-29T00:07:09.766Z,17.83
2022-07-29T00:09:43.023Z,17.80
2022-07-29T00:12:18.056Z,17.67
2022-07-29T00:14:53.501Z,17.72
2022-07-29T00:17:19.921Z,17.71
2022-07-29T00:19:46.577Z,17.67
2022-07-29T00:22:12.973Z,17.65
2022-07-29T00:24:39.378Z,17.56
2022-07-29T00:27:05.911Z,17.59
2022-07-29T00:29:34.010Z,17.59
2022-07-29T00:32:01.449Z,17.61
2022-07-29T00:34:46.536Z,17.58
2022-07-29T00:37:12.928Z,17.59
2022-07-29T00:39:39.333Z,17.56
2022-07-29T00:42:06.327Z,17.52
2022-07-29T00:44:40.639Z,17.49
2022-07-29T00:47:07.783Z,17.40
2022-07-29T00:49:35.034Z,17.48
2022-07-29T00:52:06.018Z,17.55
2022-07-29T00:54:33.758Z,17.44
2022-07-29T00:57:01.455Z,17.43
2022-07-29T00:59:34.383Z,17.42
2022-07-29T01:02:01.577Z,17.40
2022-07-29T01:04:28.089Z,17.30
2022-07-29T01:06:55.420Z,17.43
2022-07-29T01:09:42.818Z,17.41
2022-07-29T01:12:09.588Z,17.38
2022-07-29T01:14:36.698Z,17.45
2022-07-29T01:17:14.109Z,17.29
2022-07-29T01:20:03.554Z,17.19
2022-07-29T01:22:36.274Z,17.34
2022-07-29T01:25:13.496Z,17.39
2022-07-29T01:27:58.865Z,17.18
2022-07-29T01:30:26.564Z,17.35
2022-07-29T01:32:59.819Z,17.27
2022-07-29T01:35:31.709Z,17.29
2022-07-29T01:38:13.480Z,17.34
2022-07-29T01:40:48.857Z,17.29
2022-07-29T01:43:27.287Z,17.23
2022-07-29T01:46:07.681Z,17.25
2022-07-29T01:48:49.673Z,17.23
2022-07-29T01:51:30.087Z,17.15
2022-07-29T01:54:03.380Z,17.13
2022-07-29T01:56:34.609Z,17.28
2022-07-29T01:59:03.748Z,17.15
2022-07-29T02:01:33.514Z,17.09
2022-07-29T02:04:03.465Z,17.03
2022-07-29T02:06:33.171Z,17.09
2022-07-29T02:09:00.402Z,17.06
2022-07-29T02:11:26.853Z,17.03
2022-07-29T02:13:55.651Z,17.01
2022-07-29T02:16:23.798Z,16.98
2022-07-29T02:18:53.375Z,16.93
2022-07-29T02:21:23.911Z,16.86
2022-07-29T02:23:52.075Z,16.88
2022-07-29T02:26:21.211Z,16.91
2022-07-29T02:28:50.540Z,16.77
2022-07-29T02:31:21.720Z,16.76
2022-07-29T02:33:50.569Z,16.68
2022-07-29T02:36:17.764Z,16.68
2022-07-29T02:38:52.463Z,16.64
2022-07-29T02:41:28.422Z,16.72
2022-07-29T02:44:02.985Z,16.69
2022-07-29T02:46:33.907Z,16.70
2022-07-29T02:49:10.709Z,16.68
2022-07-29T02:51:45.681Z,16.66
2022-07-29T02:54:31.902Z,16.64
2022-07-29T02:57:01.844Z,16.75
2022-07-29T02:59:31.680Z,16.50
2022-07-29T03:02:00.525Z,16.73
2022-07-29T03:04:29.397Z,16.68
2022-07-29T03:06:59.632Z,16.75
2022-07-29T03:09:26.888Z,16.51
2022-07-29T03:11:55.357Z,16.42
2022-07-29T03:14:23.926Z,16.65
2022-07-29T03:16:51.959Z,16.55
2022-07-29T03:19:19.251Z,16.43
2022-07-29T03:21:45.657Z,16.29
2022-07-29T03:24:25.488Z,16.27
2022-07-29T03:26:51.908Z,16.27
2022-07-29T03:29:18.305Z,16.29
2022-07-29T03:31:46.383Z,16.32
2022-07-29T03:34:15.192Z,16.21
2022-07-29T03:36:41.797Z,16.23
2022-07-29T03:39:11.413Z,16.27
2022-07-29T03:41:40.120Z,16.16
2022-07-29T03:44:08.487Z,16.13
2022-07-29T03:46:36.484Z,16.25
2022-07-29T03:49:05.147Z,16.27
2022-07-29T03:51:33.916Z,16.08
2022-07-29T03:54:06.399Z,16.16
2022-07-29T03:56:40.505Z,16.00
2022-07-29T03:59:08.363Z,16.11
2022-07-29T04:01:35.180Z,16.12
2022-07-29T04:04:05.665Z,16.13
2022-07-29T04:06:41.978Z,16.27
2022-07-29T04:09:09.829Z,16.24
2022-07-29T04:12:02.688Z,16.25
2022-07-29T04:14:25.583Z,16.19
2022-07-29T04:16:52.024Z,16.16
2022-07-29T04:19:18.426Z,16.18
2022-07-29T04:21:46.105Z,16.05
2022-07-29T04:24:12.819Z,16.01
2022-07-29T04:26:39.490Z,16.10
2022-07-29T04:29:06.025Z,16.01
2022-07-29T04:31:32.492Z,16.05
2022-07-29T04:33:58.922Z,16.06
2022-07-29T04:36:28.931Z,16.13
2022-07-29T04:38:56.272Z,16.08
2022-07-29T04:41:22.679Z,16.08
2022-07-29T04:43:50.053Z,16.06
2022-07-29T04:46:16.624Z,16.09
2022-07-29T04:48:43.134Z,16.03
2022-07-29T04:51:09.654Z,16.14
2022-07-29T04:53:36.120Z,16.05
2022-07-29T04:56:03.097Z,16.13
2022-07-29T04:58:29.486Z,15.99
2022-07-29T05:00:55.980Z,16.03
2022-07-29T05:03:22.397Z,16.19
2022-07-29T05:05:48.796Z,16.04
2022-07-29T05:08:15.302Z,16.22
2022-07-29T05:10:41.721Z,16.20
2022-07-29T05:13:08.670Z,16.22
2022-07-29T05:15:36.283Z,16.20
2022-07-29T05:18:03.432Z,16.37
2022-07-29T05:20:30.519Z,16.17
2022-07-29T05:23:00.600Z,16.23
2022-07-29T05:25:43.585Z,16.28
2022-07-29T05:28:11.387Z,16.23
2022-07-29T05:30:37.925Z,16.26
2022-07-29T05:33:04.494Z,16.21
2022-07-29T05:35:30.937Z,16.34
2022-07-29T05:37:57.334Z,16.43
2022-07-29T05:40:23.847Z,16.40
2022-07-29T05:42:50.240Z,16.47
2022-07-29T05:45:16.638Z,16.50
2022-07-29T05:47:43.157Z,16.53
2022-07-29T05:50:09.758Z,16.61
2022-07-29T05:52:36.199Z,16.59
2022-07-29T05:55:05.248Z,16.49
2022-07-29T05:57:31.967Z,16.65
2022-07-29T05:59:58.561Z,16.79
2022-07-29T06:02:25.193Z,16.73
2022-07-29T06:04:51.905Z,16.66
2022-07-29T06:07:18.456Z,16.75
2022-07-29T06:09:44.862Z,16.79
2022-07-29T06:12:11.322Z,16.97
2022-07-29T06:14:39.118Z,16.98
2022-07-29T06:17:06.589Z,16.95
2022-07-29T06:19:35.444Z,16.90
2022-07-29T06:22:01.853Z,16.90
2022-07-29T06:24:28.373Z,16.95
2022-07-29T06:26:54.832Z,17.15
2022-07-29T06:29:21.242Z,17.11
2022-07-29T06:31:47.646Z,17.20
2022-07-29T06:34:14.499Z,17.23
2022-07-29T06:36:41.817Z,17.34
2022-07-29T06:39:09.049Z,17.37
2022-07-29T06:41:36.494Z,17.55
2022-07-29T06:44:03.217Z,17.50
2022-07-29T06:46:29.823Z,17.34
2022-07-29T06:48:56.372Z,17.62
2022-07-29T06:51:24.118Z,17.84
2022-07-29T06:53:59.397Z,17.63
2022-07-29T06:56:27.977Z,17.67
2022-07-29T06:58:54.420Z,17.82
2022-07-29T07:01:20.949Z,17.83
2022-07-29T07:03:48.215Z,18.16
2022-07-29T07:06:15.209Z,18.64
2022-07-29T07:08:42.003Z,18.52
2022-07-29T07:11:08.446Z,18.57
2022-07-29T07:13:36.747Z,19.00
2022-07-29T07:16:04.241Z,18.80
2022-07-29T07:18:31.030Z,18.78
2022-07-29T07:20:57.861Z,18.86
2022-07-29T07:23:24.752Z,19.06
2022-07-29T07:25:51.249Z,19.13
2022-07-29T07:28:17.877Z,18.96
2022-07-29T07:30:45.921Z,19.23
2022-07-29T07:33:12.389Z,19.10
2022-07-29T07:35:38.771Z,19.26
2022-07-29T07:38:06.828Z,19.11
2022-07-29T07:40:33.415Z,19.06
2022-07-29T07:42:59.817Z,19.17
2022-07-29T07:45:26.405Z,19.38
2022-07-29T07:47:52.825Z,19.55
2022-07-29T07:50:19.493Z,19.85
2022-07-29T07:52:54.621Z,19.60
2022-07-29T07:55:21.341Z,19.78
2022-07-29T07:57:48.147Z,19.91
2022-07-29T08:00:15.733Z,20.36
2022-07-29T08:02:43.910Z,20.48
2022-07-29T08:05:13.015Z,20.75
2022-07-29T08:07:40.220Z,20.66
2022-07-29T08:10:07.028Z,20.60
2022-07-29T08:12:33.499Z,20.66
2022-07-29T08:14:59.992Z,20.78
2022-07-29T08:17:27.530Z,21.07
2022-07-29T08:19:53.977Z,20.67
2022-07-29T08:22:20.666Z,20.80
2022-07-29T08:24:57.131Z,21.11
2022-07-29T08:27:43.055Z,20.74
2022-07-29T08:30:11.125Z,20.84
2022-07-29T08:32:53.238Z,22.41
2022-07-29T08:35:21.856Z,23.13
2022-07-29T08:37:48.434Z,23.35
2022-07-29T08:40:17.775Z,23.77
2022-07-29T08:42:44.492Z,24.11
2022-07-29T08:45:11.255Z,23.73
2022-07-29T08:47:40.696Z,23.98
2022-07-29T08:50:11.185Z,23.48
2022-07-29T08:52:40.525Z,23.07
2022-07-29T08:55:08.933Z,22.77
2022-07-29T08:57:37.246Z,23.16
2022-07-29T09:00:07.937Z,23.01
2022-07-29T09:02:42.568Z,22.75
2022-07-29T09:05:09.490Z,22.65
2022-07-29T09:07:36.210Z,22.51
2022-07-29T09:10:03.290Z,22.55
2022-07-29T09:12:33.687Z,22.78
2022-07-29T09:15:03.949Z,23.00
2022-07-29T09:17:46.597Z,23.31
2022-07-29T09:20:18.847Z,23.58
2022-07-29T09:22:50.035Z,23.78
2022-07-29T09:25:35.576Z,24.66
2022-07-29T09:28:12.487Z,24.56
2022-07-29T09:30:52.134Z,24.50
2022-07-29T09:33:19.652Z,24.59
2022-07-29T09:35:57.074Z,25.31
2022-07-29T09:38:24.506Z,25.45
2022-07-29T09:41:05.812Z,25.32
2022-07-29T09:43:33.334Z,25.33
2022-07-29T09:46:15.455Z,26.35
2022-07-29T09:48:42.138Z,26.83
2022-07-29T09:51:22.142Z,27.83
2022-07-29T09:53:51.312Z,27.44
2022-07-29T09:56:20.181Z,27.53
2022-07-29T09:58:46.592Z,27.44
2022-07-29T10:01:13.318Z,28.38
2022-07-29T10:03:53.544Z,28.46
2022-07-29T10:06:19.941Z,28.68
2022-07-29T10:08:47.400Z,29.13
2022-07-29T10:11:18.573Z,29.12
2022-07-29T10:13:47.791Z,29.25
2022-07-29T10:16:16.736Z,29.38
2022-07-29T10:18:47.856Z,29.61
2022-07-29T10:21:22.531Z,29.49
2022-07-29T10:24:01.768Z,28.51
2022-07-29T10:26:30.353Z,29.36
2022-07-29T10:28:56.791Z,29.24
2022-07-29T10:31:35.862Z,30.13
2022-07-29T10:34:17.927Z,30.07
2022-07-29T10:37:03.559Z,29.91
2022-07-29T10:40:43.730Z,29.53
2022-07-29T10:43:23.355Z,30.24
2022-07-29T10:45:57.718Z,30.55
2022-07-29T10:48:24.822Z,30.70
2022-07-29T10:51:05.410Z,30.30
2022-07-29T10:53:53.552Z,30.21
2022-07-29T10:56:28.399Z,30.74
2022-07-29T10:59:22.846Z,30.20
2022-07-29T11:01:53.682Z,31.00
2022-07-29T11:04:46.945Z,31.23
2022-07-29T11:07:13.702Z,31.17
2022-07-29T11:09:41.711Z,30.51
2022-07-29T11:12:39.260Z,30.27
2022-07-29T11:15:17.967Z,29.95
2022-07-29T11:18:01.177Z,30.38
2022-07-29T11:20:49.709Z,30.38
2022-07-29T11:23:20.358Z,30.11
2022-07-29T11:26:28.310Z,31.23
2022-07-29T11:28:58.516Z,30.48
2022-07-29T11:31:47.263Z,31.09
2022-07-29T11:34:46.306Z,31.23
2022-07-29T11:37:13.647Z,31.84
2022-07-29T11:39:44.473Z,31.43
2022-07-29T11:42:32.552Z,31.31
2022-07-29T11:45:42.624Z,31.05
2022-07-29T11:48:05.303Z,30.87
2022-07-29T11:50:45.711Z,30.54
2022-07-29T11:53:16.269Z,31.35
2022-07-29T11:55:51.541Z,30.18
2022-07-29T11:58:24.881Z,30.33
2022-07-29T12:00:52.569Z,30.92
2022-07-29T12:03:33.282Z,30.56
2022-07-29T12:06:04.573Z,30.85
2022-07-29T12:08:41.670Z,30.19
2022-07-29T12:11:17.594Z,30.35
2022-07-29T12:13:47.024Z,30.75
2022-07-29T12:16:15.921Z,30.37
2022-07-29T12:18:42.383Z,30.78
2022-07-29T12:21:09.310Z,31.14
2022-07-29T12:23:38.897Z,30.81
2022-07-29T12:26:07.325Z,31.00
2022-07-29T12:28:39.094Z,30.53
2022-07-29T12:31:05.820Z,30.63
2022-07-29T12:33:32.323Z,30.95
2022-07-29T12:36:14.154Z,30.31
2022-07-29T12:38:43.994Z,30.69
2022-07-29T12:41:11.219Z,29.25
2022-07-29T12:43:37.777Z,30.05
2022-07-29T12:46:15.408Z,29.93
2022-07-29T12:48:44.245Z,29.00
2022-07-29T12:51:13.282Z,28.68
2022-07-29T12:53:39.792Z,28.27
2022-07-29T12:56:20.574Z,28.20
2022-07-29T12:58:51.084Z,28.03
2022-07-29T13:01:20.419Z,27.90
2022-07-29T13:04:03.775Z,27.61
2022-07-29T13:06:35.724Z,27.54
2022-07-29T13:09:14.513Z,28.34
2022-07-29T13:11:50.348Z,28.81
2022-07-29T13:14:42.635Z,28.75
2022-07-29T13:17:13.263Z,28.14
2022-07-29T13:19:42.362Z,27.62
2022-07-29T13:22:11.064Z,27.94
2022-07-29T13:25:02.869Z,29.25
2022-07-29T13:27:32.961Z,29.32
2022-07-29T13:30:01.349Z,29.13
2022-07-29T13:32:29.963Z,29.69
2022-07-29T13:34:57.922Z,29.71
2022-07-29T13:37:24.998Z,29.29
2022-07-29T13:39:53.205Z,29.38
2022-07-29T13:42:20.407Z,29.32
2022-07-29T13:44:46.840Z,28.81
2022-07-29T13:47:13.777Z,28.65
2022-07-29T13:49:40.190Z,28.95
2022-07-29T13:52:08.242Z,28.65
2022-07-29T13:54:41.986Z,28.96
2022-07-29T13:57:09.506Z,29.31
2022-07-29T13:59:36.123Z,29.23
2022-07-29T14:02:02.802Z,28.86
2022-07-29T14:04:29.397Z,29.16
2022-07-29T14:06:55.845Z,29.60
2022-07-29T14:09:22.244Z,29.61
2022-07-29T14:11:50.594Z,29.72
2022-07-29T14:14:17.025Z,29.95
2022-07-29T14:16:50.449Z,29.46
2022-07-29T14:19:18.731Z,29.19
2022-07-29T14:21:45.754Z,28.92
2022-07-29T14:24:21.529Z,29.48
2022-07-29T14:26:49.666Z,29.23
2022-07-29T14:29:16.114Z,28.98
2022-07-29T14:31:44.033Z,29.08
2022-07-29T14:34:10.502Z,28.72
2022-07-29T14:36:36.932Z,28.56
2022-07-29T14:39:03.574Z,28.65
2022-07-29T14:41:30.513Z,29.15
2022-07-29T14:43:56.905Z,28.71
2022-07-29T14:46:23.375Z,28.91
2022-07-29T14:48:49.851Z,28.89
2022-07-29T14:51:16.517Z,29.02
2022-07-29T14:53:42.948Z,28.92
2022-07-29T14:56:35.001Z,29.40
2022-07-29T14:58:56.136Z,29.56
2022-07-29T15:01:22.666Z,29.30
2022-07-29T15:03:49.156Z,28.31
2022-07-29T15:06:15.611Z,28.52
2022-07-29T15:08:42.007Z,28.48
2022-07-29T15:11:08.759Z,28.58
2022-07-29T15:13:35.542Z,28.73
2022-07-29T15:16:02.110Z,28.81
2022-07-29T15:18:28.530Z,28.85
2022-07-29T15:20:54.957Z,28.76
2022-07-29T15:23:21.388Z,28.95
2022-07-29T15:25:47.810Z,28.81
2022-07-29T15:28:14.240Z,28.52
2022-07-29T15:30:43.508Z,28.27
2022-07-29T15:33:10.481Z,28.26
2022-07-29T15:35:40.602Z,28.51
2022-07-29T15:38:07.834Z,28.51
2022-07-29T15:40:34.380Z,28.02
2022-07-29T15:43:08.340Z,28.15
2022-07-29T15:45:40.294Z,28.19
2022-07-29T15:48:08.543Z,28.06
2022-07-29T15:50:35.490Z,28.14
2022-07-29T15:53:02.259Z,27.61
2022-07-29T15:55:28.666Z,27.42
2022-07-29T15:57:59.986Z,27.54
2022-07-29T16:00:27.091Z,27.59
2022-07-29T16:02:53.502Z,27.68
2022-07-29T16:05:19.969Z,27.51
2022-07-29T16:07:46.480Z,27.31
2022-07-29T16:10:13.008Z,27.04
2022-07-29T16:12:39.387Z,26.85
2022-07-29T16:15:09.974Z,26.92
2022-07-29T16:17:37.736Z,27.21
2022-07-29T16:20:05.877Z,26.93
2022-07-29T16:22:32.333Z,26.95
2022-07-29T16:24:58.947Z,26.75
2022-07-29T16:27:35.607Z,26.78
2022-07-29T16:30:06.892Z,26.84
2022-07-29T16:32:33.481Z,26.67
2022-07-29T16:35:02.036Z,26.63
2022-07-29T16:37:33.532Z,26.62
2022-07-29T16:40:00.089Z,26.75
2022-07-29T16:42:45.442Z,26.72
2022-07-29T16:45:13.008Z,26.47
2022-07-29T16:47:39.430Z,26.55
2022-07-29T16:50:06.349Z,26.28
2022-07-29T16:52:32.775Z,26.07
2022-07-29T16:54:59.231Z,26.08
2022-07-29T16:57:25.718Z,26.16
2022-07-29T16:59:52.214Z,26.10
2022-07-29T17:02:18.991Z,26.11
2022-07-29T17:04:45.516Z,25.72
2022-07-29T17:07:12.019Z,25.85
2022-07-29T17:09:38.503Z,25.59
2022-07-29T17:12:05.410Z,25.62
2022-07-29T17:14:32.104Z,25.70
2022-07-29T17:17:02.151Z,25.62
2022-07-29T17:19:32.085Z,25.49
2022-07-29T17:22:08.452Z,25.42
2022-07-29T17:24:35.677Z,25.41
2022-07-29T17:27:02.128Z,25.28
2022-07-29T17:29:28.619Z,25.27
2022-07-29T17:31:55.031Z,25.21
2022-07-29T17:34:21.483Z,25.26
2022-07-29T17:36:48.224Z,25.15
2022-07-29T17:39:14.634Z,25.09
2022-07-29T17:41:41.114Z,25.08
2022-07-29T17:44:09.363Z,25.10
2022-07-29T17:46:36.489Z,24.97
2022-07-29T17:49:03.200Z,24.93
2022-07-29T17:51:29.723Z,24.78
2022-07-29T17:53:56.139Z,24.86
2022-07-29T17:56:22.569Z,24.68
2022-07-29T17:58:49.005Z,24.78
2022-07-29T18:01:15.624Z,24.74
2022-07-29T18:03:42.737Z,24.56
2022-07-29T18:06:10.512Z,24.60
2022-07-29T18:08:38.892Z,24.54
2022-07-29T18:11:06.349Z,24.44
2022-07-29T18:13:33.192Z,24.45
2022-07-29T18:16:00.715Z,24.31
2022-07-29T18:18:27.749Z,24.31
2022-07-29T18:20:54.347Z,24.29
2022-07-29T18:23:21.215Z,24.20
2022-07-29T18:25:47.610Z,24.14
2022-07-29T18:28:14.265Z,24.10
2022-07-29T18:30:41.445Z,23.75
2022-07-29T18:33:22.824Z,23.79
2022-07-29T18:35:51.252Z,23.69
2022-07-29T18:38:18.130Z,23.79
2022-07-29T18:40:45.680Z,23.64
2022-07-29T18:43:13.202Z,23.67
2022-07-29T18:45:39.958Z,23.60
2022-07-29T18:48:08.363Z,23.53
2022-07-29T18:50:40.381Z,23.40
2022-07-29T18:53:06.870Z,23.45
2022-07-29T18:55:33.257Z,23.44
2022-07-29T18:57:59.689Z,23.33
2022-07-29T19:00:26.476Z,23.24
2022-07-29T19:05:20.589Z,23.23
2022-07-29T19:07:46.982Z,23.23
2022-07-29T19:10:13.627Z,23.09
2022-07-29T19:12:40.054Z,22.99
2022-07-29T19:15:08.048Z,23.01
2022-07-29T19:17:34.540Z,22.98
2022-07-29T19:20:00.994Z,22.86
2022-07-29T19:22:27.766Z,22.91
2022-07-29T19:24:54.174Z,22.85
2022-07-29T19:27:20.649Z,22.69
2022-07-29T19:29:47.036Z,22.73
2022-07-29T19:32:14.495Z,22.69
2022-07-29T19:35:10.052Z,22.58
2022-07-29T19:37:37.305Z,22.68
2022-07-29T19:40:05.087Z,22.43
2022-07-29T19:42:31.547Z,22.48
2022-07-29T19:44:57.998Z,22.45
2022-07-29T19:47:24.456Z,22.21
2022-07-29T19:49:50.822Z,22.16
2022-07-29T19:52:17.283Z,22.24
2022-07-29T19:54:43.708Z,22.12
2022-07-29T19:57:10.124Z,22.22
2022-07-29T19:59:37.141Z,22.27
2022-07-29T20:02:03.702Z,22.17
2022-07-29T20:04:30.555Z,22.01
2022-07-29T20:07:01.356Z,21.90
2022-07-29T20:09:28.765Z,21.97
2022-07-29T20:11:55.186Z,21.97
2022-07-29T20:14:21.722Z,21.95
2022-07-29T20:16:48.806Z,21.83
2022-07-29T20:19:15.423Z,21.81
2022-07-29T20:21:42.083Z,21.72
2022-07-29T20:24:10.277Z,21.81
2022-07-29T20:26:36.858Z,21.70
2022-07-29T20:29:05.165Z,21.57
2022-07-29T20:31:32.413Z,21.72
2022-07-29T20:34:00.037Z,21.78
2022-07-29T20:36:26.880Z,21.62
2022-07-29T20:38:53.700Z,21.53
2022-07-29T20:41:20.233Z,21.37
2022-07-29T20:43:49.723Z,21.39
2022-07-29T20:46:16.228Z,21.37
2022-07-29T20:48:42.762Z,21.24
2022-07-29T20:51:09.259Z,21.20
2022-07-29T20:53:38.512Z,21.27
2022-07-29T20:56:05.561Z,21.17
2022-07-29T20:58:33.964Z,21.32
2022-07-29T21:01:01.203Z,21.17
2022-07-29T21:03:27.585Z,21.17
2022-07-29T21:05:54.041Z,21.05
2022-07-29T21:08:20.466Z,21.02
2022-07-29T21:10:47.047Z,21.11
2022-07-29T21:13:14.334Z,20.96
2022-07-29T21:15:46.265Z,21.12
2022-07-29T21:18:30.535Z,20.90
2022-07-29T21:21:00.675Z,20.80
2022-07-29T21:23:27.785Z,20.86
2022-07-29T21:25:54.576Z,20.92
2022-07-29T21:28:26.780Z,20.81
2022-07-29T21:30:54.106Z,20.92
2022-07-29T21:33:20.553Z,20.76
2022-07-29T21:36:10.550Z,20.80
2022-07-29T21:38:34.155Z,20.76
2022-07-29T21:41:01.076Z,20.67
2022-07-29T21:43:28.558Z,20.74
2022-07-29T21:45:56.223Z,20.53
2022-07-29T21:48:23.729Z,20.66
2022-07-29T21:50:51.030Z,20.51
2022-07-29T21:53:17.923Z,20.53
2022-07-29T21:55:50.596Z,20.58
2022-07-29T21:58:18.047Z,20.63
2022-07-29T22:00:45.205Z,20.56
2022-07-29T22:03:11.704Z,20.52
2022-07-29T22:05:38.201Z,20.52
2022-07-29T22:08:05.088Z,20.55
2022-07-29T22:10:31.871Z,20.49
2022-07-29T22:12:59.866Z,20.37
2022-07-29T22:15:27.450Z,20.29
2022-07-29T22:17:54.215Z,20.38
2022-07-29T22:20:21.235Z,20.37
2022-07-29T22:22:48.126Z,20.42
2022-07-29T22:25:15.072Z,20.36
2022-07-29T22:27:41.476Z,20.38
2022-07-29T22:30:08.343Z,20.33
2022-07-29T22:32:35.156Z,20.12
2022-07-29T22:35:01.555Z,20.18
2022-07-29T22:37:28.335Z,20.20
2022-07-29T22:39:54.770Z,20.15
2022-07-29T22:42:21.334Z,20.11
2022-07-29T22:44:47.766Z,20.11
2022-07-29T22:47:14.206Z,20.11
2022-07-29T22:49:40.656Z,20.13
2022-07-29T22:52:07.218Z,20.11
2022-07-29T22:54:33.645Z,20.06
2022-07-29T22:57:00.961Z,20.13
2022-07-29T22:59:27.581Z,20.02
2022-07-29T23:01:54.462Z,20.14
2022-07-29T23:04:23.638Z,20.05
2022-07-29T23:06:51.082Z,19.87
2022-07-29T23:09:18.913Z,19.76
2022-07-29T23:11:47.081Z,19.89
2022-07-29T23:14:13.570Z,19.94
2022-07-29T23:16:40.045Z,19.70
2022-07-29T23:19:06.443Z,19.80
2022-07-29T23:21:32.952Z,19.73
2022-07-29T23:23:59.332Z,19.76
2022-07-29T23:26:25.831Z,19.81
2022-07-29T23:28:52.226Z,19.84
2022-07-29T23:31:18.899Z,19.95
2022-07-29T23:33:45.362Z,19.71
2022-07-29T23:36:11.794Z,19.87
2022-07-29T23:38:41.105Z,19.72
2022-07-29T23:41:09.588Z,19.73
2022-07-29T23:43:37.157Z,19.53
2022-07-29T23:46:03.690Z,19.53
2022-07-29T23:48:31.861Z,19.65
2022-07-29T23:51:00.332Z,19.69
2022-07-29T23:53:27.582Z,19.55
2022-07-29T23:55:54.001Z,19.68
2022-07-29T23:58:20.442Z,19.52
